createdAt,value
2022-09-09T00:01:21.604Z,100.00
2022-09-09T00:04:33.128Z,100.00
2022-09-09T00:07:39.498Z,100.00
2022-09-09T00:10:40.587Z,100.00
2022-09-09T00:13:47.208Z,100.00
2022-09-09T00:16:46.803Z,100.00
2022-09-09T00:20:07.350Z,100.00
2022-09-09T00:23:20.830Z,100.00
2022-09-09T00:26:36.670Z,100.00
2022-09-09T00:29:44.995Z,100.00
2022-09-09T00:32:41.991Z,100.00
2022-09-09T00:35:40.805Z,100.00
2022-09-09T00:38:39.502Z,100.00
2022-09-09T00:41:36.217Z,100.00
2022-09-09T00:44:37.186Z,100.00
2022-09-09T00:47:41.610Z,100.00
2022-09-09T00:50:53.422Z,100.00
2022-09-09T00:54:15.846Z,100.00
2022-09-09T00:57:31.650Z,100.00
2022-09-09T01:00:33.272Z,100.00
2022-09-09T01:03:39.810Z,100.00
2022-09-09T01:06:37.994Z,100.00
2022-09-09T01:09:43.557Z,100.00
2022-09-09T01:12:43.145Z,100.00
2022-09-09T01:15:43.665Z,100.00
2022-09-09T01:18:46.140Z,100.00
2022-09-09T01:21:58.178Z,100.00
2022-09-09T01:25:26.556Z,100.00
2022-09-09T01:28:29.740Z,100.00
2022-09-09T01:31:36.897Z,100.00
2022-09-09T01:34:36.664Z,100.00
2022-09-09T01:37:34.379Z,100.00
2022-09-09T01:40:31.739Z,100.00
2022-09-09T01:43:29.265Z,100.00
2022-09-09T01:46:27.205Z,100.00
2022-09-09T01:49:24.204Z,100.00
2022-09-09T01:52:21.044Z,100.00
2022-09-09T01:55:18.750Z,100.00
2022-09-09T01:58:39.110Z,100.00
2022-09-09T02:01:45.421Z,100.00
2022-09-09T02:04:56.220Z,100.00
2022-09-09T02:08:04.485Z,100.00
2022-09-09T02:11:14.695Z,100.00
2022-09-09T02:14:24.523Z,100.00
2022-09-09T02:17:28.111Z,100.00
2022-09-09T02:20:35.114Z,100.00
2022-09-09T02:23:33.267Z,100.00
2022-09-09T02:26:31.969Z,100.00
2022-09-09T02:29:39.696Z,100.00
2022-09-09T02:32:37.450Z,100.00
2022-09-09T02:35:39.953Z,100.00
2022-09-09T02:38:43.596Z,100.00
2022-09-09T02:41:44.142Z,100.00
2022-09-09T02:44:41.484Z,100.00
2022-09-09T02:47:53.255Z,100.00
2022-09-09T02:51:29.425Z,100.00
2022-09-09T02:54:29.628Z,100.00
2022-09-09T02:57:28.951Z,100.00
2022-09-09T03:00:28.196Z,100.00
2022-09-09T03:03:28.290Z,100.00
2022-09-09T03:06:26.250Z,100.00
2022-09-09T03:09:33.644Z,100.00
2022-09-09T03:12:31.406Z,100.00
2022-09-09T03:15:31.040Z,100.00
2022-09-09T03:18:29.181Z,100.00
2022-09-09T03:21:26.240Z,100.00
2022-09-09T03:24:26.083Z,100.00
2022-09-09T03:27:23.379Z,100.00
2022-09-09T03:30:24.656Z,100.00
2022-09-09T03:33:22.122Z,100.00
2022-09-09T03:36:19.124Z,100.00
2022-09-09T03:39:16.596Z,100.00
2022-09-09T03:42:15.230Z,100.00
2022-09-09T03:45:12.387Z,100.00
2022-09-09T03:48:12.798Z,100.00
2022-09-09T03:51:10.451Z,100.00
2022-09-09T03:54:11.186Z,100.00
2022-09-09T03:57:08.510Z,100.00
2022-09-09T04:00:07.877Z,100.00
2022-09-09T04:03:13.358Z,100.00
2022-09-09T04:06:11.906Z,100.00
2022-09-09T04:09:09.355Z,100.00
2022-09-09T04:12:07.823Z,100.00
2022-09-09T04:15:06.027Z,100.00
2022-09-09T04:18:04.497Z,100.00
2022-09-09T04:21:02.412Z,100.00
2022-09-09T04:24:01.613Z,100.00
2022-09-09T04:26:58.631Z,100.00
2022-09-09T04:29:57.793Z,100.00
2022-09-09T04:32:57.726Z,100.00
2022-09-09T04:35:55.838Z,100.00
2022-09-09T04:38:55.398Z,100.00
2022-09-09T04:41:52.528Z,100.00
2022-09-09T04:44:49.347Z,100.00
2022-09-09T04:47:46.459Z,100.00
2022-09-09T04:50:43.632Z,100.00
2022-09-09T04:53:42.823Z,100.00
2022-09-09T04:56:42.725Z,100.00
2022-09-09T04:59:40.531Z,100.00
2022-09-09T05:02:41.124Z,100.00
2022-09-09T05:05:38.452Z,100.00
2022-09-09T05:08:40.184Z,100.00
2022-09-09T05:11:37.923Z,100.00
2022-09-09T05:14:40.550Z,100.00
2022-09-09T05:17:38.563Z,100.00
2022-09-09T05:20:35.413Z,100.00
2022-09-09T05:23:34.890Z,100.00
2022-09-09T05:26:33.468Z,100.00
2022-09-09T05:29:34.424Z,100.00
2022-09-09T05:32:35.196Z,100.00
2022-09-09T05:35:32.370Z,100.00
2022-09-09T05:38:30.001Z,100.00
2022-09-09T05:41:27.361Z,100.00
2022-09-09T05:44:28.626Z,100.00
2022-09-09T05:47:28.712Z,100.00
2022-09-09T05:50:30.978Z,100.00
2022-09-09T05:53:28.230Z,100.00
2022-09-09T05:56:27.091Z,100.00
2022-09-09T05:59:24.684Z,100.00
2022-09-09T06:02:24.762Z,100.00
2022-09-09T06:05:28.309Z,100.00
2022-09-09T06:08:25.391Z,100.00
2022-09-09T06:11:32.287Z,100.00
2022-09-09T06:14:31.005Z,100.00
2022-09-09T06:17:30.227Z,100.00
2022-09-09T06:20:31.190Z,100.00
2022-09-09T06:23:29.366Z,100.00
2022-09-09T06:26:31.612Z,100.00
2022-09-09T06:29:30.572Z,100.00
2022-09-09T06:32:27.964Z,100.00
2022-09-09T06:35:25.613Z,100.00
2022-09-09T06:38:23.476Z,100.00
2022-09-09T06:41:21.608Z,100.00
2022-09-09T06:44:18.391Z,100.00
2022-09-09T06:47:15.961Z,100.00
2022-09-09T06:50:13.497Z,100.00
2022-09-09T06:53:10.598Z,100.00
2022-09-09T06:56:13.755Z,100.00
2022-09-09T06:59:14.512Z,100.00
2022-09-09T07:02:12.343Z,100.00
2022-09-09T07:05:10.004Z,100.00
2022-09-09T07:08:07.699Z,100.00
2022-09-09T07:11:10.229Z,100.00
2022-09-09T07:14:10.521Z,100.00
2022-09-09T07:17:07.489Z,100.00
2022-09-09T07:20:09.224Z,100.00
2022-09-09T07:23:06.481Z,100.00
2022-09-09T07:26:04.201Z,100.00
2022-09-09T07:29:01.732Z,100.00
2022-09-09T07:32:00.428Z,100.00
2022-09-09T07:35:02.406Z,100.00
2022-09-09T07:38:01.794Z,100.00
2022-09-09T07:41:07.922Z,100.00
2022-09-09T07:44:10.294Z,100.00
2022-09-09T07:47:07.670Z,100.00
2022-09-09T07:50:10.776Z,100.00
2022-09-09T07:53:09.754Z,100.00
2022-09-09T07:56:08.128Z,100.00
2022-09-09T07:59:07.271Z,100.00
2022-09-09T08:02:05.612Z,100.00
2022-09-09T08:05:07.268Z,100.00
2022-09-09T08:08:05.353Z,100.00
2022-09-09T08:11:15.634Z,100.00
2022-09-09T08:14:13.898Z,100.00
2022-09-09T08:17:11.244Z,100.00
2022-09-09T08:20:09.143Z,100.00
2022-09-09T08:23:06.676Z,100.00
2022-09-09T08:26:06.259Z,100.00
2022-09-09T08:29:04.925Z,100.00
2022-09-09T08:32:03.245Z,100.00
2022-09-09T08:35:01.685Z,100.00
2022-09-09T08:38:00.538Z,100.00
2022-09-09T08:41:05.401Z,100.00
2022-09-09T08:44:10.787Z,100.00
2022-09-09T08:47:34.326Z,100.00
2022-09-09T08:50:42.259Z,100.00
2022-09-09T08:53:50.593Z,100.00
2022-09-09T08:56:47.480Z,100.00
2022-09-09T08:59:44.454Z,100.00
2022-09-09T09:02:54.905Z,100.00
2022-09-09T09:06:23.905Z,100.00
2022-09-09T09:09:31.506Z,99.36
2022-09-09T09:12:48.597Z,99.75
2022-09-09T09:15:53.741Z,100.00
2022-09-09T09:18:52.125Z,100.00
2022-09-09T09:21:50.819Z,98.61
2022-09-09T09:25:07.208Z,97.24
2022-09-09T09:28:22.855Z,94.98
2022-09-09T09:31:26.355Z,96.83
2022-09-09T09:34:25.392Z,95.41
2022-09-09T09:37:30.747Z,96.13
2022-09-09T09:40:29.646Z,95.07
2022-09-09T09:43:29.374Z,93.14
2022-09-09T09:46:28.861Z,92.16
2022-09-09T09:49:34.755Z,91.90
2022-09-09T09:52:33.263Z,91.88
2022-09-09T09:55:34.774Z,91.38
2022-09-09T09:58:35.109Z,91.21
2022-09-09T10:01:37.093Z,90.10
2022-09-09T10:04:40.057Z,88.48
2022-09-09T10:07:38.493Z,90.09
2022-09-09T10:10:40.202Z,90.50
2022-09-09T10:13:50.706Z,89.95
2022-09-09T10:17:07.261Z,90.65
2022-09-09T10:20:22.914Z,95.84
2022-09-09T10:23:48.729Z,97.59
2022-09-09T10:27:04.648Z,95.52
2022-09-09T10:30:29.771Z,96.69
2022-09-09T10:33:33.552Z,95.68
2022-09-09T10:36:30.933Z,95.55
2022-09-09T10:39:42.264Z,95.00
2022-09-09T10:42:40.714Z,94.15
2022-09-09T10:45:44.459Z,92.60
2022-09-09T10:48:51.077Z,93.79
2022-09-09T10:52:11.985Z,92.81
2022-09-09T10:55:23.839Z,91.34
2022-09-09T10:58:37.139Z,90.38
2022-09-09T11:01:37.452Z,91.12
2022-09-09T11:04:38.905Z,90.05
2022-09-09T11:07:40.741Z,87.66
2022-09-09T11:10:50.087Z,89.72
2022-09-09T11:13:55.413Z,84.08
2022-09-09T11:17:02.918Z,85.33
2022-09-09T11:19:59.709Z,87.18
2022-09-09T11:23:01.428Z,89.56
2022-09-09T11:26:01.200Z,86.60
2022-09-09T11:29:05.169Z,88.10
2022-09-09T11:32:31.416Z,88.37
2022-09-09T11:35:49.650Z,90.29
2022-09-09T11:38:52.243Z,91.46
2022-09-09T11:41:50.034Z,92.25
2022-09-09T11:44:46.700Z,92.36
2022-09-09T11:47:52.801Z,92.36
2022-09-09T11:50:59.252Z,93.75
2022-09-09T11:54:30.403Z,92.58
2022-09-09T11:57:36.413Z,91.06
2022-09-09T12:00:34.082Z,88.06
2022-09-09T12:03:49.775Z,89.40
2022-09-09T12:07:03.540Z,86.88
2022-09-09T12:10:08.191Z,84.52
2022-09-09T12:13:23.912Z,85.09
2022-09-09T12:16:35.551Z,83.69
2022-09-09T12:19:34.037Z,82.08
2022-09-09T12:22:35.285Z,81.64
2022-09-09T12:25:51.723Z,84.47
2022-09-09T12:28:56.019Z,82.67
2022-09-09T12:31:57.590Z,82.37
2022-09-09T12:34:55.947Z,82.64
2022-09-09T12:37:58.129Z,79.98
2022-09-09T12:40:58.327Z,81.84
2022-09-09T12:44:07.093Z,81.57
2022-09-09T12:47:05.191Z,71.19
2022-09-09T12:50:03.170Z,70.74
2022-09-09T12:53:03.171Z,71.05
2022-09-09T12:56:09.113Z,68.70
2022-09-09T12:59:19.493Z,69.98
2022-09-09T13:02:24.410Z,68.34
2022-09-09T13:05:24.633Z,70.05
2022-09-09T13:08:21.964Z,69.08
2022-09-09T13:11:25.390Z,69.45
2022-09-09T13:14:38.342Z,67.88
2022-09-09T13:17:37.025Z,65.03
2022-09-09T13:20:33.969Z,66.79
2022-09-09T13:23:33.360Z,65.91
2022-09-09T13:26:31.386Z,67.55
2022-09-09T13:29:29.271Z,67.01
2022-09-09T13:32:28.054Z,65.37
2022-09-09T13:35:25.309Z,66.54
2022-09-09T13:38:27.084Z,64.86
2022-09-09T13:41:37.954Z,64.75
2022-09-09T13:44:39.750Z,64.75
2022-09-09T13:47:36.970Z,65.61
2022-09-09T13:50:33.602Z,66.39
2022-09-09T13:53:31.513Z,65.31
2022-09-09T13:56:30.105Z,64.54
2022-09-09T13:59:38.065Z,66.55
2022-09-09T14:02:45.142Z,66.88
2022-09-09T14:05:41.769Z,67.27
2022-09-09T14:08:40.871Z,67.42
2022-09-09T14:11:37.681Z,66.60
2022-09-09T14:14:35.151Z,66.06
2022-09-09T14:17:32.423Z,65.87
2022-09-09T14:20:29.970Z,67.97
2022-09-09T14:23:27.271Z,69.24
2022-09-09T14:26:25.229Z,70.01
2022-09-09T14:29:22.997Z,67.89
2022-09-09T14:32:20.476Z,68.97
2022-09-09T14:35:19.352Z,69.64
2022-09-09T14:38:19.183Z,69.83
2022-09-09T14:41:18.002Z,70.68
2022-09-09T14:44:15.028Z,66.81
2022-09-09T14:47:12.077Z,66.20
2022-09-09T14:50:09.139Z,66.00
2022-09-09T14:53:05.941Z,67.19
2022-09-09T14:56:07.746Z,64.91
2022-09-09T14:59:05.061Z,64.66
2022-09-09T15:02:05.260Z,63.44
2022-09-09T15:05:02.833Z,62.92
2022-09-09T15:08:00.169Z,64.54
2022-09-09T15:11:02.089Z,64.94
2022-09-09T15:13:59.669Z,64.52
2022-09-09T15:16:56.792Z,66.92
2022-09-09T15:19:54.362Z,77.11
2022-09-09T15:22:53.957Z,83.83
2022-09-09T15:25:53.952Z,86.91
2022-09-09T15:28:51.843Z,88.88
2022-09-09T15:31:48.700Z,90.07
2022-09-09T15:34:47.162Z,89.96
2022-09-09T15:37:43.784Z,94.96
2022-09-09T15:40:41.056Z,96.58
2022-09-09T15:43:38.348Z,99.72
2022-09-09T15:46:40.387Z,100.00
2022-09-09T15:49:37.954Z,100.00
2022-09-09T15:52:34.967Z,100.00
2022-09-09T15:55:31.679Z,100.00
2022-09-09T15:58:32.373Z,100.00
2022-09-09T16:01:30.309Z,100.00
2022-09-09T16:04:27.985Z,100.00
2022-09-09T16:07:25.078Z,98.45
2022-09-09T16:10:21.861Z,99.66
2022-09-09T16:13:19.610Z,97.51
2022-09-09T16:16:18.376Z,94.36
2022-09-09T16:19:16.036Z,93.44
2022-09-09T16:22:13.225Z,93.83
2022-09-09T16:25:11.162Z,95.58
2022-09-09T16:28:08.098Z,95.95
2022-09-09T16:31:12.505Z,93.40
2022-09-09T16:34:10.422Z,95.97
2022-09-09T16:37:07.878Z,95.02
2022-09-09T16:40:05.979Z,93.50
2022-09-09T16:43:03.783Z,92.16
2022-09-09T16:46:01.517Z,93.66
2022-09-09T16:48:59.475Z,92.24
2022-09-09T16:51:59.398Z,92.59
2022-09-09T16:54:57.067Z,91.89
2022-09-09T16:57:54.996Z,91.92
2022-09-09T17:00:52.250Z,92.93
2022-09-09T17:03:54.010Z,92.80
2022-09-09T17:06:54.844Z,93.42
2022-09-09T17:09:52.258Z,93.50
2022-09-09T17:12:49.201Z,94.29
2022-09-09T17:15:46.156Z,94.39
2022-09-09T17:18:43.089Z,95.90
2022-09-09T17:22:00.176Z,97.22
2022-09-09T17:24:56.890Z,96.82
2022-09-09T17:27:54.419Z,97.25
2022-09-09T17:30:53.597Z,96.61
2022-09-09T17:33:52.882Z,97.36
2022-09-09T17:36:49.922Z,97.09
2022-09-09T17:39:47.042Z,96.86
2022-09-09T17:42:44.062Z,97.86
2022-09-09T17:45:41.289Z,98.30
2022-09-09T17:48:38.669Z,98.43
2022-09-09T17:51:36.646Z,99.70
2022-09-09T17:54:34.602Z,99.69
2022-09-09T17:57:32.689Z,98.89
2022-09-09T18:00:31.394Z,97.74
2022-09-09T18:03:28.945Z,96.87
2022-09-09T18:06:30.821Z,96.99
2022-09-09T18:09:29.201Z,97.82
2022-09-09T18:12:27.715Z,98.18
2022-09-09T18:15:48.113Z,98.62
2022-09-09T18:18:42.283Z,97.68
2022-09-09T18:21:38.867Z,98.47
2022-09-09T18:24:36.746Z,97.51
2022-09-09T18:27:34.212Z,98.72
2022-09-09T18:30:31.909Z,97.84
2022-09-09T18:33:29.518Z,98.33
2022-09-09T18:36:32.142Z,97.86
2022-09-09T18:39:29.831Z,97.79
2022-09-09T18:42:27.555Z,98.50
2022-09-09T18:45:25.021Z,100.00
2022-09-09T18:48:22.256Z,99.55
2022-09-09T18:51:21.031Z,98.63
2022-09-09T18:54:26.849Z,99.00
2022-09-09T18:57:24.392Z,100.00
2022-09-09T19:00:21.314Z,100.00
2022-09-09T19:03:18.481Z,100.00
2022-09-09T19:06:17.529Z,100.00
2022-09-09T19:09:16.188Z,100.00
2022-09-09T19:12:13.268Z,100.00
2022-09-09T19:15:10.759Z,100.00
2022-09-09T19:18:08.160Z,100.00
2022-09-09T19:21:45.005Z,100.00
2022-09-09T19:24:42.254Z,100.00
2022-09-09T19:27:39.353Z,100.00
2022-09-09T19:30:37.660Z,100.00
2022-09-09T19:33:35.916Z,100.00
2022-09-09T19:36:33.361Z,100.00
2022-09-09T19:39:30.524Z,100.00
2022-09-09T19:42:30.200Z,100.00
2022-09-09T19:45:27.646Z,100.00
2022-09-09T19:48:27.175Z,100.00
2022-09-09T19:51:24.887Z,100.00
2022-09-09T19:54:22.705Z,100.00
2022-09-09T19:57:20.678Z,100.00
2022-09-09T20:00:19.260Z,100.00
2022-09-09T20:03:19.665Z,100.00
2022-09-09T20:06:18.007Z,100.00
2022-09-09T20:09:16.628Z,100.00
2022-09-09T20:12:14.184Z,100.00
2022-09-09T20:15:11.969Z,100.00
2022-09-09T20:18:09.282Z,100.00
2022-09-09T20:21:08.158Z,100.00
2022-09-09T20:24:07.550Z,100.00
2022-09-09T20:27:07.114Z,100.00
2022-09-09T20:30:05.112Z,100.00
2022-09-09T20:33:03.609Z,100.00
2022-09-09T20:36:05.379Z,100.00
2022-09-09T20:39:10.702Z,100.00
2022-09-09T20:42:08.330Z,100.00
2022-09-09T20:45:05.973Z,100.00
2022-09-09T20:48:04.316Z,100.00
2022-09-09T20:51:09.842Z,100.00
2022-09-09T20:54:10.069Z,100.00
2022-09-09T20:57:07.413Z,100.00
2022-09-09T21:00:08.574Z,100.00
2022-09-09T21:03:06.298Z,100.00
2022-09-09T21:06:07.274Z,100.00
2022-09-09T21:09:04.766Z,100.00
2022-09-09T21:12:03.531Z,100.00
2022-09-09T21:15:01.006Z,100.00
2022-09-09T21:17:58.322Z,100.00
2022-09-09T21:20:55.991Z,100.00
2022-09-09T21:23:57.346Z,100.00
2022-09-09T21:26:55.271Z,100.00
2022-09-09T21:29:52.564Z,100.00
2022-09-09T21:32:49.380Z,100.00
2022-09-09T21:35:46.496Z,100.00
2022-09-09T21:38:44.562Z,100.00
2022-09-09T21:41:41.560Z,100.00
2022-09-09T21:44:38.118Z,100.00
2022-09-09T21:47:34.962Z,100.00
2022-09-09T21:50:36.585Z,100.00
2022-09-09T21:53:34.045Z,100.00
2022-09-09T21:56:31.546Z,100.00
2022-09-09T21:59:28.557Z,100.00
2022-09-09T22:02:28.174Z,100.00
2022-09-09T22:05:25.665Z,100.00
2022-09-09T22:08:23.118Z,100.00
2022-09-09T22:11:22.603Z,100.00
2022-09-09T22:14:20.582Z,100.00
2022-09-09T22:17:18.420Z,100.00
2022-09-09T22:20:16.109Z,100.00
2022-09-09T22:23:13.965Z,100.00
2022-09-09T22:26:11.500Z,100.00
2022-09-09T22:29:09.151Z,100.00
2022-09-09T22:32:08.126Z,100.00
2022-09-09T22:35:05.764Z,100.00
2022-09-09T22:38:03.823Z,100.00
2022-09-09T22:41:03.014Z,100.00
2022-09-09T22:44:00.589Z,100.00
2022-09-09T22:46:57.394Z,100.00
2022-09-09T22:49:54.574Z,100.00
2022-09-09T22:52:52.701Z,100.00
2022-09-09T22:55:59.826Z,100.00
2022-09-09T22:58:57.307Z,100.00
2022-09-09T23:01:54.779Z,100.00
2022-09-09T23:04:53.145Z,100.00
2022-09-09T23:07:53.778Z,100.00
2022-09-09T23:10:53.644Z,100.00
2022-09-09T23:13:53.232Z,100.00
2022-09-09T23:16:52.627Z,100.00
2022-09-09T23:19:58.468Z,100.00
2022-09-09T23:22:56.006Z,100.00
2022-09-09T23:25:53.889Z,100.00
2022-09-09T23:28:52.676Z,100.00
2022-09-09T23:31:50.316Z,100.00
2022-09-09T23:34:47.800Z,100.00
2022-09-09T23:37:45.214Z,100.00
2022-09-09T23:40:43.167Z,100.00
2022-09-09T23:43:40.530Z,100.00
2022-09-09T23:46:37.207Z,100.00
2022-09-09T23:49:34.674Z,100.00
2022-09-09T23:52:31.704Z,100.00
2022-09-09T23:55:30.829Z,100.00
2022-09-09T23:58:30.729Z,100.00
